Time;durP1;ratioP1;P1;durP2;ratioP2;P2;SDS_P1;SDS_P2;PMS_P1;PMS_P2;Temp;Humidity;BMP_temperature;BMP_pressure;BME280_temperature;BME280_humidity;BME280_pressure;Samples;Min_cycle;Max_cycle;Signal;HPM_P1;HPM_P2
2023/08/14 17:32:29;;;;;;;9.38;4.10;;;30.50;63.20;;;;;;5085398;27;20397;-82
2023/08/14 17:35:00;;;;;;;9.55;4.30;;;29.10;65.50;;;;;;5081365;28;20040;-81
2023/08/14 17:37:27;;;;;;;10.70;4.57;;;29.00;65.10;;;;;;5071458;28;20049;-82
2023/08/14 17:39:56;;;;;;;8.95;4.57;;;28.90;65.10;;;;;;5075323;28;20045;-84
2023/08/14 17:42:24;;;;;;;7.80;4.20;;;28.90;65.20;;;;;;5070366;28;20092;-80
2023/08/14 17:44:51;;;;;;;6.53;4.00;;;28.90;65.50;;;;;;5067516;28;20059;-80
2023/08/14 17:47:20;;;;;;;7.63;4.40;;;28.80;65.60;;;;;;5072847;28;20025;-77
2023/08/14 17:49:48;;;;;;;7.82;4.72;;;28.80;65.60;;;;;;5060513;28;20052;-80
2023/08/14 17:52:15;;;;;;;16.13;11.27;;;28.90;65.80;;;;;;5066372;28;20378;-78
2023/08/14 17:54:43;;;;;;;9.30;5.05;;;28.70;65.80;;;;;;5060860;28;20060;-77
2023/08/14 17:57:10;;;;;;;5.85;4.25;;;28.70;65.90;;;;;;5054972;28;20099;-79
2023/08/14 17:59:38;;;;;;;6.93;4.20;;;28.60;65.80;;;;;;5063481;28;20040;-80
2023/08/14 18:02:06;;;;;;;8.32;5.25;;;28.60;64.20;;;;;;5066036;28;20377;-76
2023/08/14 18:04:39;;;;;;;8.00;3.95;;;28.60;64.70;;;;;;5042028;28;20064;-77
2023/08/14 18:07:07;;;;;;;7.68;4.05;;;28.60;65.10;;;;;;5071228;28;20053;-77
2023/08/14 18:09:34;;;;;;;7.80;4.03;;;28.60;65.20;;;;;;5061155;28;20040;-81
2023/08/14 18:12:03;;;;;;;6.47;4.20;;;28.50;65.30;;;;;;5065004;28;20041;-77
2023/08/14 18:14:30;;;;;;;9.68;6.57;;;28.50;65.30;;;;;;5053431;28;20044;-76
2023/08/14 18:16:58;;;;;;;8.07;5.43;;;28.50;65.30;;;;;;5071254;28;20060;-77
2023/08/14 18:19:26;;;;;;;6.47;4.18;;;28.40;64.60;;;;;;5070046;28;20029;-79
2023/08/14 18:21:56;;;;;;;7.65;4.20;;;28.50;64.40;;;;;;5065830;28;20049;-79
2023/08/14 18:24:26;;;;;;;6.53;4.40;;;28.40;65.00;;;;;;5071565;28;20090;-78
2023/08/14 18:26:54;;;;;;;;;;;28.50;65.50;;;;;;5069198;28;20382;-78
2023/08/14 18:29:24;;;;;;;7.90;5.32;;;28.60;65.50;;;;;;5067420;28;19943;-80
2023/08/14 18:31:52;;;;;;;17.80;11.45;;;28.60;63.70;;;;;;5066236;28;20456;-77
2023/08/14 18:34:23;;;;;;;13.38;8.63;;;28.60;65.40;;;;;;5053146;28;20056;-79
2023/08/14 18:36:55;;;;;;;22.02;16.35;;;28.50;66.40;;;;;;5050618;28;20045;-77
2023/08/14 18:39:27;;;;;;;11.23;8.10;;;28.40;66.90;;;;;;5047485;28;20034;-79
2023/08/14 18:41:55;;;;;;;8.77;5.63;;;28.30;67.20;;;;;;5069379;28;20076;-80
2023/08/14 18:44:23;;;;;;;9.73;5.00;;;28.30;67.60;;;;;;5053434;28;20033;-79
2023/08/14 18:46:51;;;;;;;11.27;5.93;;;28.20;68.10;;;;;;5058794;28;20441;-78
2023/08/14 18:49:18;;;;;;;8.88;5.55;;;28.20;68.50;;;;;;5055979;28;20086;-80
2023/08/14 18:51:46;;;;;;;8.00;5.28;;;28.10;68.80;;;;;;5043883;28;20044;-78
2023/08/14 18:54:18;;;;;;;8.70;5.10;;;28.00;69.30;;;;;;5057358;28;20044;-78
2023/08/14 18:56:46;;;;;;;;;;;28.00;69.10;;;;;;5050108;28;20038;-78
2023/08/14 18:59:14;;;;;;;7.93;4.82;;;28.00;68.30;;;;;;5047049;28;20032;-78
2023/08/14 19:01:41;;;;;;;8.77;5.20;;;28.00;68.70;;;;;;5050893;28;20539;-78
2023/08/14 19:04:09;;;;;;;8.35;4.78;;;28.00;68.60;;;;;;5056806;28;20134;-80
2023/08/14 19:06:37;;;;;;;8.13;5.13;;;28.00;68.40;;;;;;5024332;28;20045;-78
2023/08/14 19:09:05;;;;;;;7.30;4.53;;;28.00;68.80;;;;;;5054339;28;20072;-77
2023/08/14 19:11:35;;;;;;;8.27;4.95;;;28.00;68.90;;;;;;5037411;28;20053;-78
2023/08/14 19:14:05;;;;;;;8.63;5.20;;;28.00;68.90;;;;;;5059949;28;20061;-81
2023/08/14 19:16:36;;;;;;;10.30;4.80;;;27.90;68.70;;;;;;5029803;28;20055;-78
2023/08/14 19:19:05;;;;;;;11.80;4.60;;;27.90;68.90;;;;;;5056895;28;20037;-77
2023/08/14 19:21:36;;;;;;;8.55;4.60;;;27.90;68.60;;;;;;5057622;28;20064;-80
2023/08/14 19:24:13;;;;;;;9.63;4.72;;;27.80;68.60;;;;;;5037200;28;20045;-78
2023/08/14 19:26:54;;;;;;;7.95;4.28;;;27.70;68.30;;;;;;5037685;28;20041;-79
2023/08/14 19:29:27;;;;;;;8.15;4.85;;;27.70;68.30;;;;;;5047601;28;20109;-79
2023/08/14 19:32:08;;;;;;;8.15;5.00;;;27.80;68.70;;;;;;5056042;28;20057;-79
2023/08/14 19:34:38;;;;;;;7.80;5.00;;;27.70;68.80;;;;;;5040531;28;20060;-78
2023/08/14 19:37:06;;;;;;;8.93;4.80;;;27.70;69.10;;;;;;5054764;28;20052;-77
2023/08/14 19:39:34;;;;;;;9.63;4.97;;;27.60;69.10;;;;;;5052847;28;20037;-78
2023/08/14 19:42:02;;;;;;;9.93;5.32;;;27.60;69.40;;;;;;5040257;28;20045;-78
2023/08/14 19:44:30;;;;;;;7.93;4.80;;;27.60;69.50;;;;;;5045791;28;20110;-77
2023/08/14 19:46:58;;;;;;;7.13;4.63;;;27.60;69.10;;;;;;5056821;28;20055;-77
2023/08/14 19:49:25;;;;;;;19.42;11.90;;;27.50;69.70;;;;;;5051877;28;20052;-77
2023/08/14 19:51:53;;;;;;;20.85;13.75;;;27.40;69.90;;;;;;5051773;28;20593;-75
2023/08/14 19:54:21;;;;;;;13.73;8.23;;;27.40;70.00;;;;;;5055355;28;20517;-77
2023/08/14 19:56:48;;;;;;;9.82;5.45;;;27.40;70.10;;;;;;5049605;28;20049;-78
2023/08/14 19:59:16;;;;;;;8.15;5.28;;;27.40;69.90;;;;;;5034588;28;20069;-77
2023/08/14 20:01:50;;;;;;;9.40;5.20;;;27.40;70.10;;;;;;5046450;28;20084;-80
2023/08/14 20:04:18;;;;;;;7.10;4.32;;;27.40;70.10;;;;;;5054154;28;20072;-77
2023/08/14 20:06:46;;;;;;;8.90;4.70;;;27.50;70.20;;;;;;5057802;28;20092;-79
2023/08/14 20:09:13;;;;;;;10.70;5.15;;;27.50;70.20;;;;;;5055303;28;20041;-80
2023/08/14 20:11:43;;;;;;;27.23;20.58;;;27.50;70.30;;;;;;5042561;28;20068;-81
2023/08/14 20:14:13;;;;;;;9.48;6.15;;;27.40;70.20;;;;;;5043462;28;20041;-80
2023/08/14 20:16:42;;;;;;;9.38;6.07;;;27.30;70.20;;;;;;5038993;28;20048;-77
2023/08/14 20:19:12;;;;;;;8.25;4.70;;;27.20;70.60;;;;;;5045741;28;20038;-78
2023/08/14 20:21:40;;;;;;;6.95;4.80;;;27.20;70.50;;;;;;5052937;28;20047;-83
2023/08/14 20:24:09;;;;;;;7.95;5.10;;;27.20;70.80;;;;;;5058393;28;20041;-81
2023/08/14 20:26:36;;;;;;;8.02;4.97;;;27.20;70.60;;;;;;5040065;28;20072;-80
2023/08/14 20:29:07;;;;;;;11.65;4.97;;;27.10;70.80;;;;;;5039502;28;20029;-82
2023/08/14 20:31:42;;;;;;;7.10;5.10;;;27.10;71.20;;;;;;5036541;28;20136;-80
2023/08/14 20:34:11;;;;;;;9.75;5.60;;;27.00;71.30;;;;;;5053529;28;20049;-80
2023/08/14 20:36:40;;;;;;;9.52;5.78;;;27.00;71.90;;;;;;5062590;28;20045;-81
2023/08/14 20:39:09;;;;;;;10.30;5.03;;;27.10;72.00;;;;;;5061990;28;20075;-81
2023/08/14 20:41:39;;;;;;;9.38;4.97;;;26.90;72.20;;;;;;5046030;28;20038;-80
2023/08/14 20:44:18;;;;;;;6.80;4.70;;;26.90;72.20;;;;;;5056609;28;20056;-79
2023/08/14 20:46:47;;;;;;;10.82;5.53;;;26.70;72.30;;;;;;5041474;28;20047;-80
2023/08/14 20:49:14;;;;;;;15.02;5.00;;;26.70;72.60;;;;;;5052597;28;20054;-82
2023/08/14 20:51:41;;;;;;;8.32;5.03;;;26.80;72.60;;;;;;5063264;28;20056;-81
2023/08/14 20:54:10;;;;;;;10.73;5.97;;;26.70;72.40;;;;;;5047639;28;20037;-84
2023/08/14 20:56:53;;;;;;;7.60;4.97;;;26.70;72.50;;;;;;5060654;28;20099;-80
2023/08/14 20:59:23;;;;;;;9.73;4.70;;;26.70;73.10;;;;;;5053160;28;20041;-81
2023/08/14 21:01:53;;;;;;;7.75;5.07;;;26.70;72.90;;;;;;5059581;28;20393;-82
2023/08/14 21:04:28;;;;;;;10.10;5.20;;;26.60;72.60;;;;;;5052980;28;20049;-78
2023/08/14 21:06:58;;;;;;;8.32;5.72;;;26.60;72.90;;;;;;5060107;28;20041;-81
2023/08/14 21:09:25;;;;;;;8.95;5.38;;;26.60;73.20;;;;;;5052096;28;20071;-79
2023/08/14 21:11:55;;;;;;;11.90;5.50;;;26.50;73.40;;;;;;5020906;28;20072;-80
2023/08/14 21:14:24;;;;;;;10.95;5.55;;;26.40;73.70;;;;;;5052321;28;20103;-79
2023/08/14 21:16:54;;;;;;;9.75;5.97;;;26.40;74.10;;;;;;5056876;28;20067;-78
2023/08/14 21:19:24;;;;;;;8.05;4.93;;;26.20;74.10;;;;;;5057186;28;20099;-82
2023/08/14 21:21:52;;;;;;;9.93;5.20;;;26.20;74.10;;;;;;5054905;28;20036;-79
2023/08/14 21:24:20;;;;;;;7.97;5.43;;;26.10;74.50;;;;;;5055021;28;20033;-78
2023/08/14 21:26:51;;;;;;;6.70;4.90;;;26.10;74.60;;;;;;5046632;28;20105;-79
2023/08/14 21:29:22;;;;;;;10.25;5.55;;;25.90;74.80;;;;;;5050009;28;20038;-79
2023/08/14 21:31:50;;;;;;;7.57;5.35;;;25.80;75.20;;;;;;5039709;28;20089;-81
2023/08/14 21:34:35;;;;;;;9.57;6.28;;;25.70;75.50;;;;;;5040975;28;20147;-80
2023/08/14 21:37:10;;;;;;;8.80;5.00;;;25.70;75.70;;;;;;5066812;28;20045;-81
2023/08/14 21:39:45;;;;;;;9.65;5.60;;;25.70;75.60;;;;;;5063482;28;20046;-80
2023/08/14 21:42:25;;;;;;;9.18;5.60;;;25.70;76.00;;;;;;5062386;28;20048;-77
2023/08/14 21:44:52;;;;;;;11.88;5.57;;;25.70;76.10;;;;;;5053902;28;20075;-78
2023/08/14 21:47:25;;;;;;;9.05;5.75;;;25.90;75.80;;;;;;5033047;28;20041;-79
2023/08/14 21:49:53;;;;;;;10.90;5.63;;;25.90;76.30;;;;;;5054368;28;20095;-78
2023/08/14 21:52:23;;;;;;;14.85;5.18;;;25.80;76.60;;;;;;5054019;28;20041;-78
2023/08/14 21:54:50;;;;;;;10.20;5.50;;;25.80;76.30;;;;;;5052843;28;20068;-78
2023/08/14 21:57:19;;;;;;;7.57;5.40;;;25.80;76.00;;;;;;5054323;28;20072;-79
2023/08/14 21:59:47;;;;;;;7.88;5.18;;;25.90;76.20;;;;;;5056593;28;20033;-79
2023/08/14 22:02:14;;;;;;;7.45;4.82;;;25.70;76.30;;;;;;5032466;28;20045;-79
2023/08/14 22:04:42;;;;;;;7.90;5.60;;;25.60;76.40;;;;;;5052684;28;20087;-78
2023/08/14 22:07:09;;;;;;;8.93;5.20;;;25.60;76.90;;;;;;5052537;28;20096;-79
2023/08/14 22:09:37;;;;;;;12.95;5.88;;;25.70;76.70;;;;;;5036126;28;20044;-80
2023/08/14 22:12:10;;;;;;;11.40;5.78;;;25.60;76.70;;;;;;5042726;28;20055;-79
2023/08/14 22:14:40;;;;;;;9.35;5.68;;;25.50;76.70;;;;;;5045129;28;20052;-79
2023/08/14 22:17:13;;;;;;;10.13;5.50;;;25.40;77.00;;;;;;5047206;28;20107;-78
2023/08/14 22:19:41;;;;;;;7.60;5.57;;;25.40;77.40;;;;;;5056886;28;20039;-80
2023/08/14 22:22:09;;;;;;;8.68;4.80;;;25.30;77.70;;;;;;5031338;28;20041;-78
2023/08/14 22:24:51;;;;;;;8.55;5.20;;;25.30;77.60;;;;;;5060331;28;20037;-79
2023/08/14 22:27:20;;;;;;;8.75;4.80;;;25.30;77.60;;;;;;5064186;28;20089;-79
2023/08/14 22:29:48;;;;;;;8.52;5.25;;;25.10;78.30;;;;;;5031063;28;20111;-80
2023/08/14 22:32:30;;;;;;;10.32;5.30;;;25.20;78.30;;;;;;5045700;28;20117;-78
2023/08/14 22:34:59;;;;;;;6.97;4.60;;;25.20;78.30;;;;;;5058615;28;20045;-80
2023/08/14 22:37:26;;;;;;;10.27;5.00;;;25.40;77.90;;;;;;5052121;28;20050;-80
2023/08/14 22:39:54;;;;;;;6.93;4.60;;;25.30;77.70;;;;;;5038535;28;20449;-79
2023/08/14 22:42:25;;;;;;;7.68;4.90;;;25.10;78.60;;;;;;5052226;28;20067;-80
2023/08/14 22:44:58;;;;;;;9.18;4.95;;;24.90;79.10;;;;;;5063430;28;20032;-81
2023/08/14 22:47:26;;;;;;;7.85;5.03;;;24.90;79.10;;;;;;5064446;28;20116;-80
2023/08/14 22:50:05;;;;;;;8.00;4.90;;;25.00;79.20;;;;;;5058101;28;20117;-79
2023/08/14 22:52:38;;;;;;;8.00;4.63;;;24.90;79.50;;;;;;5057404;28;20068;-80
2023/08/14 22:55:06;;;;;;;8.73;4.50;;;24.90;80.30;;;;;;5046703;28;20049;-78
2023/08/14 22:57:38;;;;;;;8.35;4.82;;;24.80;80.30;;;;;;5056698;28;20171;-80
2023/08/14 23:00:08;;;;;;;9.98;5.30;;;24.80;80.00;;;;;;5042734;28;20056;-79
2023/08/14 23:02:38;;;;;;;7.38;4.75;;;25.20;79.60;;;;;;5029892;28;20381;-80
2023/08/14 23:05:09;;;;;;;7.32;4.20;;;25.10;78.90;;;;;;5057453;28;20044;-79
2023/08/14 23:07:37;;;;;;;7.35;4.70;;;25.20;78.40;;;;;;5040358;28;20049;-81
2023/08/14 23:10:06;;;;;;;7.82;4.43;;;25.20;78.70;;;;;;5057168;28;20151;-80
2023/08/14 23:12:33;;;;;;;6.45;4.45;;;25.20;78.90;;;;;;5059284;28;20064;-79
2023/08/14 23:15:06;;;;;;;7.60;4.45;;;25.20;78.90;;;;;;5059271;28;20107;-80
2023/08/14 23:17:35;;;;;;;8.25;4.63;;;24.90;80.00;;;;;;5061273;28;20059;-81
2023/08/14 23:20:18;;;;;;;11.02;4.70;;;24.80;80.30;;;;;;5060342;28;20118;-78
2023/08/14 23:22:48;;;;;;;6.45;4.10;;;24.80;80.40;;;;;;5058122;28;20075;-79
2023/08/14 23:25:17;;;;;;;8.60;4.18;;;24.70;80.60;;;;;;5057952;28;20052;-77
2023/08/14 23:27:47;;;;;;;8.00;4.50;;;24.70;80.40;;;;;;5057406;28;20076;-80
2023/08/14 23:30:17;;;;;;;8.32;4.40;;;24.70;80.50;;;;;;5040973;28;20045;-78
2023/08/14 23:32:45;;;;;;;5.97;4.30;;;24.60;81.10;;;;;;5041962;28;20468;-79
2023/08/14 23:35:19;;;;;;;6.25;4.40;;;24.70;80.90;;;;;;5057461;28;20078;-81
2023/08/14 23:37:51;;;;;;;7.90;4.45;;;24.50;81.60;;;;;;5037302;28;20049;-80
2023/08/14 23:40:33;;;;;;;7.60;4.25;;;24.60;81.70;;;;;;5064332;28;20425;-79
2023/08/14 23:43:14;;;;;;;7.38;4.90;;;24.60;81.60;;;;;;5044013;28;20088;-78
2023/08/14 23:45:41;;;;;;;9.43;5.50;;;24.70;81.50;;;;;;5034279;28;20047;-80
2023/08/14 23:48:09;;;;;;;8.52;4.63;;;24.90;81.20;;;;;;5049423;28;20041;-80
2023/08/14 23:50:38;;;;;;;8.02;4.45;;;24.80;81.00;;;;;;5038140;28;20041;-81
2023/08/14 23:53:06;;;;;;;7.43;4.78;;;24.60;81.50;;;;;;5054315;28;20075;-80
2023/08/14 23:55:36;;;;;;;;;;;24.40;82.20;;;;;;5056859;28;20045;-79
2023/08/14 23:58:15;;;;;;;7.32;4.22;;;24.50;82.20;;;;;;5047018;28;19921;-81
